Coreocean Ol — 3FKW9 — position and weather

sailwx.info

Track history (hours):
 
Tides and Currents Weather Stations Pressure Air Temp Water Temp Dewpoint Dewpoint Depression Visibility Wind Speed Wind Dir Waves Ship Positions

Coreocean Ol

Last reported at 2017-Oct-10 22:31 UTC. Time now 2017-Oct-19 20:01 UTC.
Position N 36°56' W 075°52'.
Warning: this ship's position is 8 days out of date.

Length 170 m; draft 10.1 m.

Type: Cargo ship. MMSI: 372878000.

Date/timePositionNaut miles runAvg speedWind from/ knotsBaromVisibWave heightAir tempDewpointWater temp
2017-Oct-10 22:31N 36°56' W 075°52'0 9.3
2017-Oct-10 22:31N 36°56' W 075°52'5 9.5
2017-Oct-10 21:59N 36°56' W 075°59'4 8.7
2017-Oct-10 21:30N 36°60' W 076°01'63 9.9
2017-Oct-10 15:09N 38°02' W 076°13'412.3
2017-Oct-10 14:51N 38°06' W 076°13'1211.9
2017-Oct-10 13:50N 38°18' W 076°18'412.0
2017-Oct-10 13:30N 38°21' W 076°19'811.8
2017-Oct-10 12:50N 38°28' W 076°23'411.6
2017-Oct-10 12:27N 38°32' W 076°25'611.2
2017-Oct-10 11:54N 38°39' W 076°25'511.3
2017-Oct-10 11:30N 38°43' W 076°26'611.4
2017-Oct-10 11:00N 38°49' W 076°25'611.7
2017-Oct-10 10:30N 38°54' W 076°23'611.7
2017-Oct-10 10:00N 39°00' W 076°23'611.2
2017-Oct-10 09:31N 39°06' W 076°24'510.4
2017-Oct-10 09:00N 39°11' W 076°26'3 5.6
2017-Oct-10 08:31N 39°12' W 076°29'0 0.8
2017-Oct-10 08:00N 39°13' W 076°29'0 0.0
2017-Oct-10 07:30N 39°13' W 076°29'0 0.0
2017-Oct-10 07:00N 39°13' W 076°29'0 0.0
2017-Oct-10 06:30N 39°13' W 076°29'0 0.0
2017-Oct-10 06:00N 39°13' W 076°29'0 0.0
2017-Oct-10 05:30N 39°13' W 076°29'0 0.0
2017-Oct-10 05:00N 39°13' W 076°29'0 0.0
2017-Oct-10 04:30N 39°13' W 076°29'0 0.0
2017-Oct-10 04:00N 39°13' W 076°29'0 0.0
2017-Oct-10 03:30N 39°13' W 076°29'0 0.0
2017-Oct-10 03:00N 39°13' W 076°29'0 0.0
2017-Oct-10 02:30N 39°13' W 076°29'0 0.0
2017-Oct-10 02:00N 39°13' W 076°29'0 0.0
2017-Oct-10 01:30N 39°13' W 076°29'0 0.0
2017-Oct-10 01:00N 39°13' W 076°29'0 0.0
2017-Oct-10 00:30N 39°13' W 076°29'0 0.0
2017-Oct-10 00:00N 39°13' W 076°29'0 0.0
2017-Oct-09 23:30N 39°13' W 076°29'0 0.0
2017-Oct-09 19:42N 39°13' W 076°29'0 0.0
2017-Oct-09 07:57N 39°13' W 076°29'0 0.0
2017-Oct-09 07:12N 39°13' W 076°29'0 0.0
2017-Oct-08 21:21N 39°13' W 076°29'0 0.7
2017-Oct-08 20:48N 39°12' W 076°29'0 0.0
2017-Oct-08 19:30N 39°12' W 076°29'0 0.0
2017-Oct-08 16:45N 39°12' W 076°29'0 0.0
2017-Oct-08 16:24N 39°12' W 076°29'0 0.0
2017-Oct-08 15:57N 39°12' W 076°29'0 0.0
2017-Oct-08 15:30N 39°12' W 076°29'0 0.0
2017-Oct-08 14:57N 39°12' W 076°29'0 0.0
2017-Oct-08 14:30N 39°12' W 076°29'0 0.0
2017-Oct-08 13:03N 39°12' W 076°29'0 0.0
2017-Oct-08 13:00N 39°12' W 076°29'0 0.0
2017-Oct-08 12:18N 39°12' W 076°29'0 0.0
2017-Oct-08 11:54N 39°12' W 076°29'0 0.0
2017-Oct-08 10:24N 39°12' W 076°29'0 0.0
2017-Oct-08 09:48N 39°12' W 076°29'0 0.0
2017-Oct-08 09:30N 39°12' W 076°29'0 0.0
2017-Oct-08 08:54N 39°12' W 076°29'0 0.0
2017-Oct-08 08:30N 39°12' W 076°29'0 0.0
2017-Oct-08 07:42N 39°12' W 076°29'0 0.0
2017-Oct-08 07:12N 39°12' W 076°29'0 0.0
2017-Oct-08 06:57N 39°12' W 076°29'0 0.0
2017-Oct-08 06:18N 39°12' W 076°29'0 0.0
2017-Oct-08 05:57N 39°12' W 076°29'0 0.0
2017-Oct-08 05:30N 39°12' W 076°29'0 0.0
2017-Oct-08 05:00N 39°12' W 076°29'0 0.0
2017-Oct-08 04:30N 39°12' W 076°29'0 0.0
2017-Oct-08 04:00N 39°12' W 076°29'0 0.0
2017-Oct-08 03:30N 39°12' W 076°29'0 0.0
2017-Oct-08 03:00N 39°12' W 076°29'0 0.0
2017-Oct-08 02:30N 39°12' W 076°29'0 0.0
2017-Oct-08 02:00N 39°12' W 076°29'0 0.0
2017-Oct-08 01:30N 39°12' W 076°29'0 0.0
2017-Oct-08 01:00N 39°12' W 076°29'0 0.0
2017-Oct-08 00:30N 39°12' W 076°29'0 0.0
2017-Oct-07 23:57N 39°12' W 076°29'0 0.0
2017-Oct-07 23:30N 39°12' W 076°29'0 0.0
2017-Oct-07 23:00N 39°12' W 076°29'0 0.0
2017-Oct-07 22:30N 39°12' W 076°29'0 0.0
2017-Oct-07 22:00N 39°12' W 076°29'0 0.0
2017-Oct-07 21:30N 39°12' W 076°29'0 0.0
2017-Oct-07 21:00N 39°12' W 076°29'0 0.0
2017-Oct-07 20:30N 39°12' W 076°29'0 0.0
2017-Oct-07 20:00N 39°12' W 076°29'0 0.0
2017-Oct-07 19:30N 39°12' W 076°29'0 0.0
2017-Oct-07 19:00N 39°12' W 076°29'0 0.0
2017-Oct-07 18:30N 39°12' W 076°29'0 0.0
2017-Oct-07 17:57N 39°12' W 076°29'0 0.0
2017-Oct-07 17:27N 39°12' W 076°29'0 0.0
2017-Oct-07 17:00N 39°12' W 076°29'0 0.0
2017-Oct-07 16:30N 39°12' W 076°29'0 0.0
2017-Oct-07 16:00N 39°12' W 076°29'0 0.0
2017-Oct-07 15:27N 39°12' W 076°29'0 0.0
2017-Oct-07 15:00N 39°12' W 076°29'0 0.0
2017-Oct-07 14:30N 39°12' W 076°29'0 0.0
2017-Oct-07 14:00N 39°12' W 076°29'0 0.0
2017-Oct-07 13:30N 39°12' W 076°29'0 0.0
2017-Oct-07 13:00N 39°12' W 076°29'0 0.0
2017-Oct-07 12:30N 39°12' W 076°29'0 0.0
2017-Oct-07 12:00N 39°12' W 076°29'0 0.0
2017-Oct-07 11:30N 39°12' W 076°29'0 0.0
2017-Oct-07 11:00N 39°12' W 076°29'0 0.0
2017-Oct-07 10:30N 39°12' W 076°29'0 0.0
2017-Oct-07 10:00N 39°12' W 076°29'0 0.0
2017-Oct-07 09:30N 39°12' W 076°29'0 0.0
2017-Oct-07 09:00N 39°12' W 076°29'0 0.0
2017-Oct-07 08:30N 39°12' W 076°29'0 0.0
2017-Oct-07 08:00N 39°12' W 076°29'0 0.0
2017-Oct-07 07:30N 39°12' W 076°29'0 0.0
2017-Oct-07 07:00N 39°12' W 076°29'0 0.0
2017-Oct-07 06:30N 39°12' W 076°29'0 0.0
2017-Oct-07 06:00N 39°12' W 076°29'0 0.0
2017-Oct-07 05:30N 39°12' W 076°29'0 0.0
2017-Oct-07 05:00N 39°12' W 076°29'0 0.0
2017-Oct-07 04:30N 39°12' W 076°29'0 0.0
2017-Oct-07 04:00N 39°12' W 076°29'0 0.0
2017-Oct-07 03:30N 39°12' W 076°29'0 0.0
2017-Oct-07 03:00N 39°12' W 076°29'0 0.0
2017-Oct-07 02:30N 39°12' W 076°29'0 0.0
2017-Oct-07 02:00N 39°12' W 076°29'0 0.0
2017-Oct-07 01:30N 39°12' W 076°29'0 0.0
2017-Oct-07 01:00N 39°12' W 076°29'0 0.0
2017-Oct-07 00:30N 39°12' W 076°29'0 0.0
2017-Oct-07 00:00N 39°12' W 076°29'0 0.0
2017-Oct-06 23:30N 39°12' W 076°29'0 0.0
2017-Oct-06 23:00N 39°12' W 076°29'0 0.0
2017-Oct-06 22:30N 39°12' W 076°29'0 0.0
2017-Oct-06 22:00N 39°12' W 076°29'0 0.0
2017-Oct-06 21:30N 39°12' W 076°29'0 0.0
2017-Oct-06 21:00N 39°12' W 076°29'0 0.1
2017-Oct-06 20:30N 39°12' W 076°29'2 3.3
2017-Oct-06 20:00N 39°11' W 076°27'510.0
2017-Oct-06 19:30N 39°07' W 076°24'510.8
2017-Oct-06 19:01N 39°02' W 076°23'510.2
2017-Oct-06 18:30N 38°57' W 076°25'1 1.2
2017-Oct-06 17:58N 38°56' W 076°25'0 0.0
2017-Oct-06 17:28N 38°56' W 076°25'0 0.1
2017-Oct-06 16:58N 38°56' W 076°25'0 0.0
2017-Oct-06 16:28N 38°56' W 076°25'0 0.0
2017-Oct-06 15:58N 38°56' W 076°25'0 0.0
2017-Oct-06 15:28N 38°56' W 076°25'0 0.0
2017-Oct-06 14:58N 38°56' W 076°25'0 0.0
2017-Oct-06 14:28N 38°56' W 076°25'0 0.1
2017-Oct-06 13:58N 38°56' W 076°25'0 0.1
2017-Oct-06 13:28N 38°56' W 076°25'0 0.1
2017-Oct-06 12:58N 38°56' W 076°25'0 0.1
2017-Oct-06 12:28N 38°56' W 076°25'0 0.0
2017-Oct-06 11:58N 38°56' W 076°25'0 0.0
2017-Oct-06 11:28N 38°56' W 076°25'0 0.0
2017-Oct-06 10:58N 38°56' W 076°25'0 0.0
2017-Oct-06 10:28N 38°56' W 076°25'0 0.0
2017-Oct-06 09:58N 38°56' W 076°25'0 0.0
2017-Oct-06 09:28N 38°56' W 076°25'0 0.0
2017-Oct-06 08:58N 38°56' W 076°25'0 0.0
2017-Oct-06 08:28N 38°56' W 076°25'0 0.0
2017-Oct-06 07:58N 38°56' W 076°25'0 0.0
2017-Oct-06 07:28N 38°56' W 076°25'0 0.0
2017-Oct-06 06:58N 38°56' W 076°25'0 0.2
2017-Oct-06 06:28N 38°56' W 076°25'0 0.1
2017-Oct-06 05:58N 38°56' W 076°25'0 0.0
2017-Oct-06 05:28N 38°56' W 076°25'0 0.0
2017-Oct-06 04:58N 38°56' W 076°25'0 0.1
2017-Oct-06 04:28N 38°56' W 076°25'0 0.0
2017-Oct-06 03:58N 38°56' W 076°25'0 0.0
2017-Oct-06 03:28N 38°56' W 076°25'0 0.0
2017-Oct-06 02:58N 38°56' W 076°25'0 0.1
2017-Oct-06 02:28N 38°56' W 076°25'0 0.1
2017-Oct-06 01:58N 38°56' W 076°25'0 0.0
2017-Oct-06 01:28N 38°56' W 076°25'0 0.1
2017-Oct-06 00:58N 38°56' W 076°25'0 0.0
2017-Oct-06 00:28N 38°56' W 076°25'0 0.0
2017-Oct-05 23:58N 38°56' W 076°25'0 0.0
2017-Oct-05 23:28N 38°56' W 076°25'0 0.0
2017-Oct-05 22:58N 38°56' W 076°25'0 0.0
2017-Oct-05 22:28N 38°56' W 076°25'0 0.0
2017-Oct-05 21:58N 38°56' W 076°25'0 0.0
2017-Oct-05 21:28N 38°56' W 076°25'0 0.0
2017-Oct-05 20:58N 38°56' W 076°25'0 0.0
2017-Oct-05 20:28N 38°56' W 076°25'0 0.0
2017-Oct-05 19:58N 38°56' W 076°25'0 0.0
2017-Oct-05 19:25N 38°56' W 076°25'0 0.0
2017-Oct-05 18:58N 38°56' W 076°25'0 0.0
2017-Oct-05 18:28N 38°56' W 076°25'0 0.1
2017-Oct-05 17:58N 38°56' W 076°25'0 0.0
2017-Oct-05 17:28N 38°56' W 076°25'0 0.1
2017-Oct-05 16:58N 38°56' W 076°25'0 0.1
2017-Oct-05 15:28N 38°56' W 076°25'0 0.0
2017-Oct-05 14:58N 38°56' W 076°25'0 0.1
2017-Oct-05 14:28N 38°56' W 076°25'0 0.1
2017-Oct-05 13:58N 38°56' W 076°25'0 0.1
2017-Oct-05 13:28N 38°56' W 076°25'0 0.1
2017-Oct-05 12:58N 38°56' W 076°25'0 0.0
2017-Oct-05 12:28N 38°56' W 076°25'0 0.1
2017-Oct-05 11:58N 38°56' W 076°25'0 0.0
2017-Oct-05 11:28N 38°56' W 076°25'0 0.0
2017-Oct-05 10:58N 38°56' W 076°25'0 0.0
2017-Oct-05 10:28N 38°56' W 076°25'0 0.0
2017-Oct-05 09:55N 38°56' W 076°25'0 0.0
2017-Oct-05 09:28N 38°56' W 076°25'0 0.0
2017-Oct-05 08:58N 38°56' W 076°25'0 0.0
2017-Oct-05 08:28N 38°56' W 076°25'0 0.0
2017-Oct-05 07:58N 38°56' W 076°25'0 0.0
2017-Oct-05 07:28N 38°56' W 076°25'0 0.0
2017-Oct-05 06:58N 38°56' W 076°25'0 0.0
2017-Oct-05 06:28N 38°56' W 076°25'0 0.0
2017-Oct-05 05:58N 38°56' W 076°25'0 0.0
2017-Oct-05 05:28N 38°56' W 076°25'0 0.1
2017-Oct-05 04:58N 38°56' W 076°25'0 0.0
2017-Oct-05 04:28N 38°56' W 076°25'0 0.1
2017-Oct-05 03:58N 38°56' W 076°25'0 0.1
2017-Oct-05 03:28N 38°56' W 076°25'0 0.0
2017-Oct-05 02:58N 38°56' W 076°25'0 0.0
2017-Oct-05 02:28N 38°56' W 076°25'0 0.0
2017-Oct-05 01:58N 38°56' W 076°25'0 0.1
2017-Oct-05 01:28N 38°56' W 076°25'0 0.0
2017-Oct-05 00:58N 38°56' W 076°25'0 0.0
2017-Oct-05 00:28N 38°56' W 076°25'0 0.0
2017-Oct-04 23:58N 38°56' W 076°25'0 0.0
2017-Oct-04 23:28N 38°56' W 076°25'0 0.0
2017-Oct-04 22:58N 38°56' W 076°25'0 0.0
2017-Oct-04 22:28N 38°56' W 076°25'0 0.0
2017-Oct-04 21:58N 38°56' W 076°25'0 0.0
2017-Oct-04 21:28N 38°56' W 076°25'0 0.0
2017-Oct-04 20:58N 38°56' W 076°25'0 0.0
2017-Oct-04 20:28N 38°56' W 076°25'0 0.0
2017-Oct-04 19:58N 38°56' W 076°25'0 0.0
2017-Oct-04 19:28N 38°56' W 076°25'0 0.0
2017-Oct-04 18:58N 38°56' W 076°25'0 0.0
2017-Oct-04 18:28N 38°56' W 076°25'0 0.0
2017-Oct-04 17:58N 38°56' W 076°25'0 0.0
2017-Oct-04 17:28N 38°56' W 076°25'0 0.0
2017-Oct-04 16:55N 38°56' W 076°25'0 0.1
2017-Oct-04 16:28N 38°56' W 076°25'0 0.1
2017-Oct-04 15:58N 38°56' W 076°25'0 0.1
2017-Oct-04 15:28N 38°56' W 076°25'0 0.1
2017-Oct-04 14:58N 38°56' W 076°25'0 0.1
2017-Oct-04 14:28N 38°56' W 076°25'0 0.1
2017-Oct-04 13:58N 38°56' W 076°25'0 0.0
2017-Oct-04 13:28N 38°56' W 076°25'0 0.0
2017-Oct-04 12:58N 38°56' W 076°25'0 0.1
2017-Oct-04 12:28N 38°56' W 076°25'0 0.2
2017-Oct-04 11:58N 38°56' W 076°25'0 0.1
2017-Oct-04 11:28N 38°56' W 076°25'0 0.0
2017-Oct-04 10:58N 38°56' W 076°25'0 0.0
2017-Oct-04 10:28N 38°56' W 076°25'0 0.0
2017-Oct-04 09:58N 38°56' W 076°25'0 0.0
2017-Oct-04 09:28N 38°56' W 076°25'0 0.0
2017-Oct-04 08:58N 38°56' W 076°25'0 0.0
2017-Oct-04 08:28N 38°56' W 076°25'0 0.0
2017-Oct-04 07:58N 38°56' W 076°25'0 0.0
2017-Oct-04 07:28N 38°56' W 076°25'0 0.0
2017-Oct-04 06:58N 38°56' W 076°25'0 0.0
2017-Oct-04 06:28N 38°56' W 076°25'0 0.0
2017-Oct-04 05:58N 38°56' W 076°25'0 0.0
2017-Oct-04 05:28N 38°56' W 076°25'0 0.0
2017-Oct-04 04:58N 38°56' W 076°25'0 0.0
2017-Oct-04 04:28N 38°56' W 076°25'0 0.1
2017-Oct-04 03:58N 38°56' W 076°25'0 0.1
2017-Oct-04 03:28N 38°56' W 076°25'0 0.1
2017-Oct-04 02:58N 38°56' W 076°25'0 0.0
2017-Oct-04 02:28N 38°56' W 076°25'0 0.0
2017-Oct-04 01:58N 38°56' W 076°25'0 0.1
2017-Oct-04 01:28N 38°56' W 076°25'0 0.0
2017-Oct-04 00:58N 38°56' W 076°25'0 0.0
2017-Oct-04 00:28N 38°56' W 076°25'0 0.0
2017-Oct-03 23:58N 38°56' W 076°25'0 0.1
2017-Oct-03 23:28N 38°56' W 076°25'0 0.2
2017-Oct-03 22:58N 38°56' W 076°25'0 0.1
2017-Oct-03 22:28N 38°56' W 076°25'0 0.0
2017-Oct-03 21:58N 38°56' W 076°25'0 0.0
2017-Oct-03 21:28N 38°56' W 076°25'0 0.0
2017-Oct-03 20:58N 38°56' W 076°25'0 0.0
2017-Oct-03 20:28N 38°56' W 076°25'0 0.0
2017-Oct-03 19:58N 38°56' W 076°25'0 0.0
2017-Oct-03 19:28N 38°56' W 076°25'0 0.1
2017-Oct-03 18:58N 38°56' W 076°25'0 0.1
2017-Oct-03 18:28N 38°56' W 076°25'0 0.1
2017-Oct-03 17:55N 38°56' W 076°25'0 0.1
2017-Oct-03 17:28N 38°56' W 076°25'0 0.1
2017-Oct-03 16:58N 38°56' W 076°25'0 0.0
2017-Oct-03 16:28N 38°56' W 076°25'0 0.0
2017-Oct-03 15:58N 38°56' W 076°25'0 0.0
2017-Oct-03 15:28N 38°56' W 076°25'0 0.0
2017-Oct-03 14:58N 38°56' W 076°25'0 0.0
2017-Oct-03 13:58N 38°56' W 076°25'0 0.0
2017-Oct-03 13:28N 38°56' W 076°25'0 0.0
2017-Oct-03 12:58N 38°56' W 076°25'0 0.0
2017-Oct-03 12:28N 38°56' W 076°25'0 0.0
2017-Oct-03 11:58N 38°56' W 076°25'0 0.0
2017-Oct-03 11:28N 38°56' W 076°25'0 0.2
2017-Oct-03 10:58N 38°56' W 076°25'0 0.1
2017-Oct-03 10:28N 38°56' W 076°25'0 0.0
2017-Oct-03 09:58N 38°56' W 076°25'0 0.0
2017-Oct-03 09:28N 38°56' W 076°25'0 0.0
2017-Oct-03 08:58N 38°56' W 076°25'0 0.0
2017-Oct-03 08:28N 38°56' W 076°25'0 0.0
2017-Oct-03 07:58N 38°56' W 076°25'0 0.0
2017-Oct-03 07:28N 38°56' W 076°25'0 0.0
2017-Oct-03 06:58N 38°56' W 076°25'0 0.0
2017-Oct-03 06:28N 38°56' W 076°25'0 0.0
2017-Oct-03 05:58N 38°56' W 076°25'0 0.0
2017-Oct-03 05:28N 38°56' W 076°25'0 0.1
2017-Oct-03 04:58N 38°56' W 076°25'0 0.1
2017-Oct-03 04:28N 38°56' W 076°25'0 0.1
2017-Oct-03 03:58N 38°56' W 076°25'0 0.1
2017-Oct-03 03:28N 38°56' W 076°25'0 0.1
2017-Oct-03 02:58N 38°56' W 076°25'0 0.0
2017-Oct-03 02:28N 38°56' W 076°25'0 0.1
2017-Oct-03 01:58N 38°56' W 076°25'0 0.0
2017-Oct-03 01:28N 38°56' W 076°25'0 0.0
2017-Oct-03 00:58N 38°56' W 076°25'0 0.0
2017-Oct-03 00:28N 38°56' W 076°25'0 0.0
2017-Oct-02 23:58N 38°56' W 076°25'0 0.0
2017-Oct-02 23:28N 38°56' W 076°25'0 0.1
2017-Oct-02 22:58N 38°56' W 076°25'0 0.2
2017-Oct-02 22:28N 38°56' W 076°25'0 0.1
2017-Oct-02 21:58N 38°56' W 076°25'0 0.1
2017-Oct-02 21:28N 38°56' W 076°25'0 0.1
2017-Oct-02 20:58N 38°56' W 076°25'0 0.0
2017-Oct-02 20:28N 38°56' W 076°25'0 0.0
2017-Oct-02 19:58N 38°56' W 076°25'0 0.0
2017-Oct-02 19:28N 38°56' W 076°25'0 0.1
2017-Oct-02 18:58N 38°56' W 076°25'0 0.1
2017-Oct-02 18:28N 38°56' W 076°25'0 0.0
2017-Oct-02 17:58N 38°56' W 076°25'0 0.1
2017-Oct-02 17:28N 38°56' W 076°25'0 0.0
2017-Oct-02 16:58N 38°56' W 076°25'0 0.1
2017-Oct-02 16:28N 38°56' W 076°25'0 0.0
2017-Oct-02 15:58N 38°56' W 076°25'0 0.0
2017-Oct-02 15:28N 38°56' W 076°25'0 0.0
2017-Oct-02 14:58N 38°56' W 076°25'0 0.1
2017-Oct-02 14:28N 38°56' W 076°25'0 0.0
2017-Oct-02 13:58N 38°56' W 076°25'0 0.0
2017-Oct-02 13:28N 38°56' W 076°25'0 0.0
2017-Oct-02 12:58N 38°56' W 076°25'0 0.0
2017-Oct-02 12:28N 38°56' W 076°25'0 0.0
2017-Oct-02 11:58N 38°56' W 076°25'0 0.0
2017-Oct-02 11:28N 38°56' W 076°25'0 0.0
2017-Oct-02 10:58N 38°56' W 076°25'0 0.0
2017-Oct-02 10:28N 38°56' W 076°25'0 0.1
2017-Oct-02 09:58N 38°56' W 076°25'0 0.1
2017-Oct-02 09:28N 38°56' W 076°25'0 0.1
2017-Oct-02 08:58N 38°56' W 076°25'0 0.1
2017-Oct-02 08:28N 38°56' W 076°25'0 0.0
2017-Oct-02 07:58N 38°56' W 076°25'0 0.0
2017-Oct-02 07:28N 38°56' W 076°25'0 0.0
2017-Oct-02 06:58N 38°56' W 076°25'0 0.0
2017-Oct-02 06:28N 38°56' W 076°25'0 0.0
2017-Oct-02 05:58N 38°56' W 076°25'0 0.0
2017-Oct-02 05:28N 38°56' W 076°25'0 0.0
2017-Oct-02 04:58N 38°56' W 076°25'0 0.0
2017-Oct-02 04:28N 38°56' W 076°25'0 0.0
2017-Oct-02 03:58N 38°56' W 076°25'0 0.0
2017-Oct-02 03:28N 38°56' W 076°25'0 0.1
2017-Oct-02 02:58N 38°56' W 076°25'0 0.1
2017-Oct-02 02:28N 38°56' W 076°25'0 0.1
2017-Oct-02 01:58N 38°56' W 076°25'0 0.1
2017-Oct-02 01:28N 38°56' W 076°25'0 0.1
2017-Oct-02 00:58N 38°56' W 076°25'0 0.0
2017-Oct-02 00:28N 38°56' W 076°25'0 0.1
2017-Oct-01 23:58N 38°56' W 076°25'0 0.1
2017-Oct-01 23:28N 38°56' W 076°25'0 0.1
2017-Oct-01 22:58N 38°56' W 076°25'0 0.0
2017-Oct-01 22:28N 38°56' W 076°25'0 0.0
2017-Oct-01 21:58N 38°56' W 076°25'0 0.0
2017-Oct-01 21:28N 38°56' W 076°25'0 0.0
2017-Oct-01 20:58N 38°56' W 076°25'0 0.0
2017-Oct-01 20:28N 38°56' W 076°25'0 0.0
2017-Oct-01 19:58N 38°56' W 076°25'0 0.0
2017-Oct-01 19:28N 38°56' W 076°25'0 0.0
2017-Oct-01 18:58N 38°56' W 076°25'0 0.0
2017-Oct-01 18:28N 38°56' W 076°25'0 0.0
2017-Oct-01 17:58N 38°56' W 076°25'0 0.1
2017-Oct-01 17:28N 38°56' W 076°25'0 0.1
2017-Oct-01 16:58N 38°56' W 076°25'0 0.2
2017-Oct-01 16:28N 38°56' W 076°25'0 0.0
2017-Oct-01 15:58N 38°56' W 076°25'0 0.0
2017-Oct-01 15:28N 38°56' W 076°25'0 0.0
2017-Oct-01 14:58N 38°56' W 076°25'0 0.0
2017-Oct-01 14:28N 38°56' W 076°25'0 0.0
2017-Oct-01 13:58N 38°56' W 076°25'0 0.1
2017-Oct-01 13:28N 38°56' W 076°25'0 0.0
2017-Oct-01 12:58N 38°56' W 076°25'0 0.0
2017-Oct-01 12:28N 38°56' W 076°25'0 0.0
2017-Oct-01 11:58N 38°56' W 076°25'0 0.0
2017-Oct-01 11:28N 38°56' W 076°25'0 0.0
2017-Oct-01 10:58N 38°56' W 076°25'0 0.0
2017-Oct-01 10:28N 38°56' W 076°25'0 0.0
2017-Oct-01 09:58N 38°56' W 076°25'0 0.0
2017-Oct-01 09:28N 38°56' W 076°25'0 0.0
2017-Oct-01 08:58N 38°56' W 076°25'0 0.0
2017-Oct-01 08:28N 38°56' W 076°25'0 0.0
2017-Oct-01 07:58N 38°56' W 076°25'0 0.0
2017-Oct-01 07:28N 38°56' W 076°25'0 0.0
2017-Oct-01 06:58N 38°56' W 076°25'0 0.1
2017-Oct-01 06:28N 38°56' W 076°25'0 0.0
2017-Oct-01 05:58N 38°56' W 076°25'0 0.0
2017-Oct-01 05:28N 38°56' W 076°25'0 0.0
2017-Oct-01 04:55N 38°56' W 076°25'0 0.0
2017-Oct-01 04:28N 38°56' W 076°25'0 0.0
2017-Oct-01 03:55N 38°56' W 076°25'0 0.0
2017-Oct-01 03:28N 38°56' W 076°25'0 0.1
2017-Oct-01 02:58N 38°56' W 076°25'  
Track history (hours):
 
Tides and Currents Weather Stations Pressure Air Temp Water Temp Dewpoint Dewpoint Depression Visibility Wind Speed Wind Dir Waves Ship Positions

Coreocean Ol

Last reported at 2017-Oct-10 22:31 UTC. Time now 2017-Oct-19 20:01 UTC.
Position N 36°56' W 075°52'.
Warning: this ship's position is 8 days out of date.

Length 170 m; draft 10.1 m.

Type: Cargo ship. MMSI: 372878000.

Date/timePositionNaut miles runAvg speedWind from/ knotsBaromVisibWave heightAir tempDewpointWater temp
2017-Oct-10 22:31N 36°56' W 075°52'0 9.3
2017-Oct-10 22:31N 36°56' W 075°52'5 9.5
2017-Oct-10 21:59N 36°56' W 075°59'4 8.7
2017-Oct-10 21:30N 36°60' W 076°01'63 9.9
2017-Oct-10 15:09N 38°02' W 076°13'412.3
2017-Oct-10 14:51N 38°06' W 076°13'1211.9
2017-Oct-10 13:50N 38°18' W 076°18'412.0
2017-Oct-10 13:30N 38°21' W 076°19'811.8
2017-Oct-10 12:50N 38°28' W 076°23'411.6
2017-Oct-10 12:27N 38°32' W 076°25'611.2
2017-Oct-10 11:54N 38°39' W 076°25'511.3
2017-Oct-10 11:30N 38°43' W 076°26'611.4
2017-Oct-10 11:00N 38°49' W 076°25'611.7
2017-Oct-10 10:30N 38°54' W 076°23'611.7
2017-Oct-10 10:00N 39°00' W 076°23'611.2
2017-Oct-10 09:31N 39°06' W 076°24'510.4
2017-Oct-10 09:00N 39°11' W 076°26'3 5.6
2017-Oct-10 08:31N 39°12' W 076°29'0 0.8
2017-Oct-10 08:00N 39°13' W 076°29'0 0.0
2017-Oct-10 07:30N 39°13' W 076°29'0 0.0
2017-Oct-10 07:00N 39°13' W 076°29'0 0.0
2017-Oct-10 06:30N 39°13' W 076°29'0 0.0
2017-Oct-10 06:00N 39°13' W 076°29'0 0.0
2017-Oct-10 05:30N 39°13' W 076°29'0 0.0
2017-Oct-10 05:00N 39°13' W 076°29'0 0.0
2017-Oct-10 04:30N 39°13' W 076°29'0 0.0
2017-Oct-10 04:00N 39°13' W 076°29'0 0.0
2017-Oct-10 03:30N 39°13' W 076°29'0 0.0
2017-Oct-10 03:00N 39°13' W 076°29'0 0.0
2017-Oct-10 02:30N 39°13' W 076°29'0 0.0
2017-Oct-10 02:00N 39°13' W 076°29'0 0.0
2017-Oct-10 01:30N 39°13' W 076°29'0 0.0
2017-Oct-10 01:00N 39°13' W 076°29'0 0.0
2017-Oct-10 00:30N 39°13' W 076°29'0 0.0
2017-Oct-10 00:00N 39°13' W 076°29'0 0.0
2017-Oct-09 23:30N 39°13' W 076°29'0 0.0
2017-Oct-09 19:42N 39°13' W 076°29'0 0.0
2017-Oct-09 07:57N 39°13' W 076°29'0 0.0
2017-Oct-09 07:12N 39°13' W 076°29'0 0.0
2017-Oct-08 21:21N 39°13' W 076°29'0 0.7
2017-Oct-08 20:48N 39°12' W 076°29'0 0.0
2017-Oct-08 19:30N 39°12' W 076°29'0 0.0
2017-Oct-08 16:45N 39°12' W 076°29'0 0.0
2017-Oct-08 16:24N 39°12' W 076°29'0 0.0
2017-Oct-08 15:57N 39°12' W 076°29'0 0.0
2017-Oct-08 15:30N 39°12' W 076°29'0 0.0
2017-Oct-08 14:57N 39°12' W 076°29'0 0.0
2017-Oct-08 14:30N 39°12' W 076°29'0 0.0
2017-Oct-08 13:03N 39°12' W 076°29'0 0.0
2017-Oct-08 13:00N 39°12' W 076°29'0 0.0
2017-Oct-08 12:18N 39°12' W 076°29'0 0.0
2017-Oct-08 11:54N 39°12' W 076°29'0 0.0
2017-Oct-08 10:24N 39°12' W 076°29'0 0.0
2017-Oct-08 09:48N 39°12' W 076°29'0 0.0
2017-Oct-08 09:30N 39°12' W 076°29'0 0.0
2017-Oct-08 08:54N 39°12' W 076°29'0 0.0
2017-Oct-08 08:30N 39°12' W 076°29'0 0.0
2017-Oct-08 07:42N 39°12' W 076°29'0 0.0
2017-Oct-08 07:12N 39°12' W 076°29'0 0.0
2017-Oct-08 06:57N 39°12' W 076°29'0 0.0
2017-Oct-08 06:18N 39°12' W 076°29'0 0.0
2017-Oct-08 05:57N 39°12' W 076°29'0 0.0
2017-Oct-08 05:30N 39°12' W 076°29'0 0.0
2017-Oct-08 05:00N 39°12' W 076°29'0 0.0
2017-Oct-08 04:30N 39°12' W 076°29'0 0.0
2017-Oct-08 04:00N 39°12' W 076°29'0 0.0
2017-Oct-08 03:30N 39°12' W 076°29'0 0.0
2017-Oct-08 03:00N 39°12' W 076°29'0 0.0
2017-Oct-08 02:30N 39°12' W 076°29'0 0.0
2017-Oct-08 02:00N 39°12' W 076°29'0 0.0
2017-Oct-08 01:30N 39°12' W 076°29'0 0.0
2017-Oct-08 01:00N 39°12' W 076°29'0 0.0
2017-Oct-08 00:30N 39°12' W 076°29'0 0.0
2017-Oct-07 23:57N 39°12' W 076°29'0 0.0
2017-Oct-07 23:30N 39°12' W 076°29'0 0.0
2017-Oct-07 23:00N 39°12' W 076°29'0 0.0
2017-Oct-07 22:30N 39°12' W 076°29'0 0.0
2017-Oct-07 22:00N 39°12' W 076°29'0 0.0
2017-Oct-07 21:30N 39°12' W 076°29'0 0.0
2017-Oct-07 21:00N 39°12' W 076°29'0 0.0
2017-Oct-07 20:30N 39°12' W 076°29'0 0.0
2017-Oct-07 20:00N 39°12' W 076°29'0 0.0
2017-Oct-07 19:30N 39°12' W 076°29'0 0.0
2017-Oct-07 19:00N 39°12' W 076°29'0 0.0
2017-Oct-07 18:30N 39°12' W 076°29'0 0.0
2017-Oct-07 17:57N 39°12' W 076°29'0 0.0
2017-Oct-07 17:27N 39°12' W 076°29'0 0.0
2017-Oct-07 17:00N 39°12' W 076°29'0 0.0
2017-Oct-07 16:30N 39°12' W 076°29'0 0.0
2017-Oct-07 16:00N 39°12' W 076°29'0 0.0
2017-Oct-07 15:27N 39°12' W 076°29'0 0.0
2017-Oct-07 15:00N 39°12' W 076°29'0 0.0
2017-Oct-07 14:30N 39°12' W 076°29'0 0.0
2017-Oct-07 14:00N 39°12' W 076°29'0 0.0
2017-Oct-07 13:30N 39°12' W 076°29'0 0.0
2017-Oct-07 13:00N 39°12' W 076°29'0 0.0
2017-Oct-07 12:30N 39°12' W 076°29'0 0.0
2017-Oct-07 12:00N 39°12' W 076°29'0 0.0
2017-Oct-07 11:30N 39°12' W 076°29'0 0.0
2017-Oct-07 11:00N 39°12' W 076°29'0 0.0
2017-Oct-07 10:30N 39°12' W 076°29'0 0.0
2017-Oct-07 10:00N 39°12' W 076°29'0 0.0
2017-Oct-07 09:30N 39°12' W 076°29'0 0.0
2017-Oct-07 09:00N 39°12' W 076°29'0 0.0
2017-Oct-07 08:30N 39°12' W 076°29'0 0.0
2017-Oct-07 08:00N 39°12' W 076°29'0 0.0
2017-Oct-07 07:30N 39°12' W 076°29'0 0.0
2017-Oct-07 07:00N 39°12' W 076°29'0 0.0
2017-Oct-07 06:30N 39°12' W 076°29'0 0.0
2017-Oct-07 06:00N 39°12' W 076°29'0 0.0
2017-Oct-07 05:30N 39°12' W 076°29'0 0.0
2017-Oct-07 05:00N 39°12' W 076°29'0 0.0
2017-Oct-07 04:30N 39°12' W 076°29'0 0.0
2017-Oct-07 04:00N 39°12' W 076°29'0 0.0
2017-Oct-07 03:30N 39°12' W 076°29'0 0.0
2017-Oct-07 03:00N 39°12' W 076°29'0 0.0
2017-Oct-07 02:30N 39°12' W 076°29'0 0.0
2017-Oct-07 02:00N 39°12' W 076°29'0 0.0
2017-Oct-07 01:30N 39°12' W 076°29'0 0.0
2017-Oct-07 01:00N 39°12' W 076°29'0 0.0
2017-Oct-07 00:30N 39°12' W 076°29'0 0.0
2017-Oct-07 00:00N 39°12' W 076°29'0 0.0
2017-Oct-06 23:30N 39°12' W 076°29'0 0.0
2017-Oct-06 23:00N 39°12' W 076°29'0 0.0
2017-Oct-06 22:30N 39°12' W 076°29'0 0.0
2017-Oct-06 22:00N 39°12' W 076°29'0 0.0
2017-Oct-06 21:30N 39°12' W 076°29'0 0.0
2017-Oct-06 21:00N 39°12' W 076°29'0 0.1
2017-Oct-06 20:30N 39°12' W 076°29'2 3.3
2017-Oct-06 20:00N 39°11' W 076°27'510.0
2017-Oct-06 19:30N 39°07' W 076°24'510.8
2017-Oct-06 19:01N 39°02' W 076°23'510.2
2017-Oct-06 18:30N 38°57' W 076°25'1 1.2
2017-Oct-06 17:58N 38°56' W 076°25'0 0.0
2017-Oct-06 17:28N 38°56' W 076°25'0 0.1
2017-Oct-06 16:58N 38°56' W 076°25'0 0.0
2017-Oct-06 16:28N 38°56' W 076°25'0 0.0
2017-Oct-06 15:58N 38°56' W 076°25'0 0.0
2017-Oct-06 15:28N 38°56' W 076°25'0 0.0
2017-Oct-06 14:58N 38°56' W 076°25'0 0.0
2017-Oct-06 14:28N 38°56' W 076°25'0 0.1
2017-Oct-06 13:58N 38°56' W 076°25'0 0.1
2017-Oct-06 13:28N 38°56' W 076°25'0 0.1
2017-Oct-06 12:58N 38°56' W 076°25'0 0.1
2017-Oct-06 12:28N 38°56' W 076°25'0 0.0
2017-Oct-06 11:58N 38°56' W 076°25'0 0.0
2017-Oct-06 11:28N 38°56' W 076°25'0 0.0
2017-Oct-06 10:58N 38°56' W 076°25'0 0.0
2017-Oct-06 10:28N 38°56' W 076°25'0 0.0
2017-Oct-06 09:58N 38°56' W 076°25'0 0.0
2017-Oct-06 09:28N 38°56' W 076°25'0 0.0
2017-Oct-06 08:58N 38°56' W 076°25'0 0.0
2017-Oct-06 08:28N 38°56' W 076°25'0 0.0
2017-Oct-06 07:58N 38°56' W 076°25'0 0.0
2017-Oct-06 07:28N 38°56' W 076°25'0 0.0
2017-Oct-06 06:58N 38°56' W 076°25'0 0.2
2017-Oct-06 06:28N 38°56' W 076°25'0 0.1
2017-Oct-06 05:58N 38°56' W 076°25'0 0.0
2017-Oct-06 05:28N 38°56' W 076°25'0 0.0
2017-Oct-06 04:58N 38°56' W 076°25'0 0.1
2017-Oct-06 04:28N 38°56' W 076°25'0 0.0
2017-Oct-06 03:58N 38°56' W 076°25'0 0.0
2017-Oct-06 03:28N 38°56' W 076°25'0 0.0
2017-Oct-06 02:58N 38°56' W 076°25'0 0.1
2017-Oct-06 02:28N 38°56' W 076°25'0 0.1
2017-Oct-06 01:58N 38°56' W 076°25'0 0.0
2017-Oct-06 01:28N 38°56' W 076°25'0 0.1
2017-Oct-06 00:58N 38°56' W 076°25'0 0.0
2017-Oct-06 00:28N 38°56' W 076°25'0 0.0
2017-Oct-05 23:58N 38°56' W 076°25'0 0.0
2017-Oct-05 23:28N 38°56' W 076°25'0 0.0
2017-Oct-05 22:58N 38°56' W 076°25'0 0.0
2017-Oct-05 22:28N 38°56' W 076°25'0 0.0
2017-Oct-05 21:58N 38°56' W 076°25'0 0.0
2017-Oct-05 21:28N 38°56' W 076°25'0 0.0
2017-Oct-05 20:58N 38°56' W 076°25'0 0.0
2017-Oct-05 20:28N 38°56' W 076°25'0 0.0
2017-Oct-05 19:58N 38°56' W 076°25'0 0.0
2017-Oct-05 19:25N 38°56' W 076°25'0 0.0
2017-Oct-05 18:58N 38°56' W 076°25'0 0.0
2017-Oct-05 18:28N 38°56' W 076°25'0 0.1
2017-Oct-05 17:58N 38°56' W 076°25'0 0.0
2017-Oct-05 17:28N 38°56' W 076°25'0 0.1
2017-Oct-05 16:58N 38°56' W 076°25'0 0.1
2017-Oct-05 15:28N 38°56' W 076°25'0 0.0
2017-Oct-05 14:58N 38°56' W 076°25'0 0.1
2017-Oct-05 14:28N 38°56' W 076°25'0 0.1
2017-Oct-05 13:58N 38°56' W 076°25'0 0.1
2017-Oct-05 13:28N 38°56' W 076°25'0 0.1
2017-Oct-05 12:58N 38°56' W 076°25'0 0.0
2017-Oct-05 12:28N 38°56' W 076°25'0 0.1
2017-Oct-05 11:58N 38°56' W 076°25'0 0.0
2017-Oct-05 11:28N 38°56' W 076°25'0 0.0
2017-Oct-05 10:58N 38°56' W 076°25'0 0.0
2017-Oct-05 10:28N 38°56' W 076°25'0 0.0
2017-Oct-05 09:55N 38°56' W 076°25'0 0.0
2017-Oct-05 09:28N 38°56' W 076°25'0 0.0
2017-Oct-05 08:58N 38°56' W 076°25'0 0.0
2017-Oct-05 08:28N 38°56' W 076°25'0 0.0
2017-Oct-05 07:58N 38°56' W 076°25'0 0.0
2017-Oct-05 07:28N 38°56' W 076°25'0 0.0
2017-Oct-05 06:58N 38°56' W 076°25'0 0.0
2017-Oct-05 06:28N 38°56' W 076°25'0 0.0
2017-Oct-05 05:58N 38°56' W 076°25'0 0.0
2017-Oct-05 05:28N 38°56' W 076°25'0 0.1
2017-Oct-05 04:58N 38°56' W 076°25'0 0.0
2017-Oct-05 04:28N 38°56' W 076°25'0 0.1
2017-Oct-05 03:58N 38°56' W 076°25'0 0.1
2017-Oct-05 03:28N 38°56' W 076°25'0 0.0
2017-Oct-05 02:58N 38°56' W 076°25'0 0.0
2017-Oct-05 02:28N 38°56' W 076°25'0 0.0
2017-Oct-05 01:58N 38°56' W 076°25'0 0.1
2017-Oct-05 01:28N 38°56' W 076°25'0 0.0
2017-Oct-05 00:58N 38°56' W 076°25'0 0.0
2017-Oct-05 00:28N 38°56' W 076°25'0 0.0
2017-Oct-04 23:58N 38°56' W 076°25'0 0.0
2017-Oct-04 23:28N 38°56' W 076°25'0 0.0
2017-Oct-04 22:58N 38°56' W 076°25'0 0.0
2017-Oct-04 22:28N 38°56' W 076°25'0 0.0
2017-Oct-04 21:58N 38°56' W 076°25'0 0.0
2017-Oct-04 21:28N 38°56' W 076°25'0 0.0
2017-Oct-04 20:58N 38°56' W 076°25'0 0.0
2017-Oct-04 20:28N 38°56' W 076°25'0 0.0
2017-Oct-04 19:58N 38°56' W 076°25'0 0.0
2017-Oct-04 19:28N 38°56' W 076°25'0 0.0
2017-Oct-04 18:58N 38°56' W 076°25'0 0.0
2017-Oct-04 18:28N 38°56' W 076°25'0 0.0
2017-Oct-04 17:58N 38°56' W 076°25'0 0.0
2017-Oct-04 17:28N 38°56' W 076°25'0 0.0
2017-Oct-04 16:55N 38°56' W 076°25'0 0.1
2017-Oct-04 16:28N 38°56' W 076°25'0 0.1
2017-Oct-04 15:58N 38°56' W 076°25'0 0.1
2017-Oct-04 15:28N 38°56' W 076°25'0 0.1
2017-Oct-04 14:58N 38°56' W 076°25'0 0.1
2017-Oct-04 14:28N 38°56' W 076°25'0 0.1
2017-Oct-04 13:58N 38°56' W 076°25'0 0.0
2017-Oct-04 13:28N 38°56' W 076°25'0 0.0
2017-Oct-04 12:58N 38°56' W 076°25'0 0.1
2017-Oct-04 12:28N 38°56' W 076°25'0 0.2
2017-Oct-04 11:58N 38°56' W 076°25'0 0.1
2017-Oct-04 11:28N 38°56' W 076°25'0 0.0
2017-Oct-04 10:58N 38°56' W 076°25'0 0.0
2017-Oct-04 10:28N 38°56' W 076°25'0 0.0
2017-Oct-04 09:58N 38°56' W 076°25'0 0.0
2017-Oct-04 09:28N 38°56' W 076°25'0 0.0
2017-Oct-04 08:58N 38°56' W 076°25'0 0.0
2017-Oct-04 08:28N 38°56' W 076°25'0 0.0
2017-Oct-04 07:58N 38°56' W 076°25'0 0.0
2017-Oct-04 07:28N 38°56' W 076°25'0 0.0
2017-Oct-04 06:58N 38°56' W 076°25'0 0.0
2017-Oct-04 06:28N 38°56' W 076°25'0 0.0
2017-Oct-04 05:58N 38°56' W 076°25'0 0.0
2017-Oct-04 05:28N 38°56' W 076°25'0 0.0
2017-Oct-04 04:58N 38°56' W 076°25'0 0.0
2017-Oct-04 04:28N 38°56' W 076°25'0 0.1
2017-Oct-04 03:58N 38°56' W 076°25'0 0.1
2017-Oct-04 03:28N 38°56' W 076°25'0 0.1
2017-Oct-04 02:58N 38°56' W 076°25'0 0.0
2017-Oct-04 02:28N 38°56' W 076°25'0 0.0
2017-Oct-04 01:58N 38°56' W 076°25'0 0.1
2017-Oct-04 01:28N 38°56' W 076°25'0 0.0
2017-Oct-04 00:58N 38°56' W 076°25'0 0.0
2017-Oct-04 00:28N 38°56' W 076°25'0 0.0
2017-Oct-03 23:58N 38°56' W 076°25'0 0.1
2017-Oct-03 23:28N 38°56' W 076°25'0 0.2
2017-Oct-03 22:58N 38°56' W 076°25'0 0.1
2017-Oct-03 22:28N 38°56' W 076°25'0 0.0
2017-Oct-03 21:58N 38°56' W 076°25'0 0.0
2017-Oct-03 21:28N 38°56' W 076°25'0 0.0
2017-Oct-03 20:58N 38°56' W 076°25'0 0.0
2017-Oct-03 20:28N 38°56' W 076°25'0 0.0
2017-Oct-03 19:58N 38°56' W 076°25'0 0.0
2017-Oct-03 19:28N 38°56' W 076°25'0 0.1
2017-Oct-03 18:58N 38°56' W 076°25'0 0.1
2017-Oct-03 18:28N 38°56' W 076°25'0 0.1
2017-Oct-03 17:55N 38°56' W 076°25'0 0.1
2017-Oct-03 17:28N 38°56' W 076°25'0 0.1
2017-Oct-03 16:58N 38°56' W 076°25'0 0.0
2017-Oct-03 16:28N 38°56' W 076°25'0 0.0
2017-Oct-03 15:58N 38°56' W 076°25'0 0.0
2017-Oct-03 15:28N 38°56' W 076°25'0 0.0
2017-Oct-03 14:58N 38°56' W 076°25'0 0.0
2017-Oct-03 13:58N 38°56' W 076°25'0 0.0
2017-Oct-03 13:28N 38°56' W 076°25'0 0.0
2017-Oct-03 12:58N 38°56' W 076°25'0 0.0
2017-Oct-03 12:28N 38°56' W 076°25'0 0.0
2017-Oct-03 11:58N 38°56' W 076°25'0 0.0
2017-Oct-03 11:28N 38°56' W 076°25'0 0.2
2017-Oct-03 10:58N 38°56' W 076°25'0 0.1
2017-Oct-03 10:28N 38°56' W 076°25'0 0.0
2017-Oct-03 09:58N 38°56' W 076°25'0 0.0
2017-Oct-03 09:28N 38°56' W 076°25'0 0.0
2017-Oct-03 08:58N 38°56' W 076°25'0 0.0
2017-Oct-03 08:28N 38°56' W 076°25'0 0.0
2017-Oct-03 07:58N 38°56' W 076°25'0 0.0
2017-Oct-03 07:28N 38°56' W 076°25'0 0.0
2017-Oct-03 06:58N 38°56' W 076°25'0 0.0
2017-Oct-03 06:28N 38°56' W 076°25'0 0.0
2017-Oct-03 05:58N 38°56' W 076°25'0 0.0
2017-Oct-03 05:28N 38°56' W 076°25'0 0.1
2017-Oct-03 04:58N 38°56' W 076°25'0 0.1
2017-Oct-03 04:28N 38°56' W 076°25'0 0.1
2017-Oct-03 03:58N 38°56' W 076°25'0 0.1
2017-Oct-03 03:28N 38°56' W 076°25'0 0.1
2017-Oct-03 02:58N 38°56' W 076°25'0 0.0
2017-Oct-03 02:28N 38°56' W 076°25'0 0.1
2017-Oct-03 01:58N 38°56' W 076°25'0 0.0
2017-Oct-03 01:28N 38°56' W 076°25'0 0.0
2017-Oct-03 00:58N 38°56' W 076°25'0 0.0
2017-Oct-03 00:28N 38°56' W 076°25'0 0.0
2017-Oct-02 23:58N 38°56' W 076°25'0 0.0
2017-Oct-02 23:28N 38°56' W 076°25'0 0.1
2017-Oct-02 22:58N 38°56' W 076°25'0 0.2
2017-Oct-02 22:28N 38°56' W 076°25'0 0.1
2017-Oct-02 21:58N 38°56' W 076°25'0 0.1
2017-Oct-02 21:28N 38°56' W 076°25'0 0.1
2017-Oct-02 20:58N 38°56' W 076°25'0 0.0
2017-Oct-02 20:28N 38°56' W 076°25'0 0.0
2017-Oct-02 19:58N 38°56' W 076°25'0 0.0
2017-Oct-02 19:28N 38°56' W 076°25'0 0.1
2017-Oct-02 18:58N 38°56' W 076°25'0 0.1
2017-Oct-02 18:28N 38°56' W 076°25'0 0.0
2017-Oct-02 17:58N 38°56' W 076°25'0 0.1
2017-Oct-02 17:28N 38°56' W 076°25'0 0.0
2017-Oct-02 16:58N 38°56' W 076°25'0 0.1
2017-Oct-02 16:28N 38°56' W 076°25'0 0.0
2017-Oct-02 15:58N 38°56' W 076°25'0 0.0
2017-Oct-02 15:28N 38°56' W 076°25'0 0.0
2017-Oct-02 14:58N 38°56' W 076°25'0 0.1
2017-Oct-02 14:28N 38°56' W 076°25'0 0.0
2017-Oct-02 13:58N 38°56' W 076°25'0 0.0
2017-Oct-02 13:28N 38°56' W 076°25'0 0.0
2017-Oct-02 12:58N 38°56' W 076°25'0 0.0
2017-Oct-02 12:28N 38°56' W 076°25'0 0.0
2017-Oct-02 11:58N 38°56' W 076°25'0 0.0
2017-Oct-02 11:28N 38°56' W 076°25'0 0.0
2017-Oct-02 10:58N 38°56' W 076°25'0 0.0
2017-Oct-02 10:28N 38°56' W 076°25'0 0.1
2017-Oct-02 09:58N 38°56' W 076°25'0 0.1
2017-Oct-02 09:28N 38°56' W 076°25'0 0.1
2017-Oct-02 08:58N 38°56' W 076°25'0 0.1
2017-Oct-02 08:28N 38°56' W 076°25'0 0.0
2017-Oct-02 07:58N 38°56' W 076°25'0 0.0
2017-Oct-02 07:28N 38°56' W 076°25'0 0.0
2017-Oct-02 06:58N 38°56' W 076°25'0 0.0
2017-Oct-02 06:28N 38°56' W 076°25'0 0.0
2017-Oct-02 05:58N 38°56' W 076°25'0 0.0
2017-Oct-02 05:28N 38°56' W 076°25'0 0.0
2017-Oct-02 04:58N 38°56' W 076°25'0 0.0
2017-Oct-02 04:28N 38°56' W 076°25'0 0.0
2017-Oct-02 03:58N 38°56' W 076°25'0 0.0
2017-Oct-02 03:28N 38°56' W 076°25'0 0.1
2017-Oct-02 02:58N 38°56' W 076°25'0 0.1
2017-Oct-02 02:28N 38°56' W 076°25'0 0.1
2017-Oct-02 01:58N 38°56' W 076°25'0 0.1
2017-Oct-02 01:28N 38°56' W 076°25'0 0.1
2017-Oct-02 00:58N 38°56' W 076°25'0 0.0
2017-Oct-02 00:28N 38°56' W 076°25'0 0.1
2017-Oct-01 23:58N 38°56' W 076°25'0 0.1
2017-Oct-01 23:28N 38°56' W 076°25'0 0.1
2017-Oct-01 22:58N 38°56' W 076°25'0 0.0
2017-Oct-01 22:28N 38°56' W 076°25'0 0.0
2017-Oct-01 21:58N 38°56' W 076°25'0 0.0
2017-Oct-01 21:28N 38°56' W 076°25'0 0.0
2017-Oct-01 20:58N 38°56' W 076°25'0 0.0
2017-Oct-01 20:28N 38°56' W 076°25'0 0.0
2017-Oct-01 19:58N 38°56' W 076°25'0 0.0
2017-Oct-01 19:28N 38°56' W 076°25'0 0.0
2017-Oct-01 18:58N 38°56' W 076°25'0 0.0
2017-Oct-01 18:28N 38°56' W 076°25'0 0.0
2017-Oct-01 17:58N 38°56' W 076°25'0 0.1
2017-Oct-01 17:28N 38°56' W 076°25'0 0.1
2017-Oct-01 16:58N 38°56' W 076°25'0 0.2
2017-Oct-01 16:28N 38°56' W 076°25'0 0.0
2017-Oct-01 15:58N 38°56' W 076°25'0 0.0
2017-Oct-01 15:28N 38°56' W 076°25'0 0.0
2017-Oct-01 14:58N 38°56' W 076°25'0 0.0
2017-Oct-01 14:28N 38°56' W 076°25'0 0.0
2017-Oct-01 13:58N 38°56' W 076°25'0 0.1
2017-Oct-01 13:28N 38°56' W 076°25'0 0.0
2017-Oct-01 12:58N 38°56' W 076°25'0 0.0
2017-Oct-01 12:28N 38°56' W 076°25'0 0.0
2017-Oct-01 11:58N 38°56' W 076°25'0 0.0
2017-Oct-01 11:28N 38°56' W 076°25'0 0.0
2017-Oct-01 10:58N 38°56' W 076°25'0 0.0
2017-Oct-01 10:28N 38°56' W 076°25'0 0.0
2017-Oct-01 09:58N 38°56' W 076°25'0 0.0
2017-Oct-01 09:28N 38°56' W 076°25'0 0.0
2017-Oct-01 08:58N 38°56' W 076°25'0 0.0
2017-Oct-01 08:28N 38°56' W 076°25'0 0.0
2017-Oct-01 07:58N 38°56' W 076°25'0 0.0
2017-Oct-01 07:28N 38°56' W 076°25'0 0.0
2017-Oct-01 06:58N 38°56' W 076°25'0 0.1
2017-Oct-01 06:28N 38°56' W 076°25'0 0.0
2017-Oct-01 05:58N 38°56' W 076°25'0 0.0
2017-Oct-01 05:28N 38°56' W 076°25'0 0.0
2017-Oct-01 04:55N 38°56' W 076°25'0 0.0
2017-Oct-01 04:28N 38°56' W 076°25'0 0.0
2017-Oct-01 03:55N 38°56' W 076°25'0 0.0
2017-Oct-01 03:28N 38°56' W 076°25'0 0.1
2017-Oct-01 02:58N 38°56' W 076°25'  

Dump ship's entire track history